sensor_id;sensor_type;location;lat;lon;timestamp;pressure;altitude;pressure_sealevel;temperature;humidity
60646;BME280;46462;32.608;-117.032;2023-04-15T00:04:34;99306.82;;;24.53;35.63
60646;BME280;46462;32.608;-117.032;2023-04-15T00:07:05;99307.40;;;24.54;35.65
60646;BME280;46462;32.608;-117.032;2023-04-15T00:09:36;99301.05;;;24.53;35.67
60646;BME280;46462;32.608;-117.032;2023-04-15T00:12:06;99295.75;;;24.52;35.69
60646;BME280;46462;32.608;-117.032;2023-04-15T00:14:37;99296.74;;;24.49;35.77
60646;BME280;46462;32.608;-117.032;2023-04-15T00:17:08;99297.27;;;24.49;35.80
60646;BME280;46462;32.608;-117.032;2023-04-15T00:19:39;99296.58;;;24.52;35.77
60646;BME280;46462;32.608;-117.032;2023-04-15T00:22:10;99294.66;;;24.55;35.72
60646;BME280;46462;32.608;-117.032;2023-04-15T00:24:41;99289.49;;;24.54;35.74
60646;BME280;46462;32.608;-117.032;2023-04-15T00:27:11;99285.55;;;24.52;35.76
60646;BME280;46462;32.608;-117.032;2023-04-15T00:29:42;99287.70;;;24.49;35.83
60646;BME280;46462;32.608;-117.032;2023-04-15T00:32:12;99286.67;;;24.51;35.83
60646;BME280;46462;32.608;-117.032;2023-04-15T00:34:43;99287.05;;;24.51;35.83
60646;BME280;46462;32.608;-117.032;2023-04-15T00:37:14;99286.18;;;24.50;35.84
60646;BME280;46462;32.608;-117.032;2023-04-15T00:39:45;99282.92;;;24.49;35.86
60646;BME280;46462;32.608;-117.032;2023-04-15T00:42:16;99282.75;;;24.50;35.84
60646;BME280;46462;32.608;-117.032;2023-04-15T00:44:46;99283.25;;;24.49;35.86
60646;BME280;46462;32.608;-117.032;2023-04-15T00:47:18;99283.02;;;24.48;35.86
60646;BME280;46462;32.608;-117.032;2023-04-15T00:49:48;99285.27;;;24.47;35.91
60646;BME280;46462;32.608;-117.032;2023-04-15T00:52:18;99287.57;;;24.47;35.89
60646;BME280;46462;32.608;-117.032;2023-04-15T00:54:49;99294.66;;;24.44;35.94
60646;BME280;46462;32.608;-117.032;2023-04-15T00:57:20;99294.38;;;24.44;35.95
60646;BME280;46462;32.608;-117.032;2023-04-15T00:59:51;99293.96;;;24.42;35.95
60646;BME280;46462;32.608;-117.032;2023-04-15T01:02:22;99296.62;;;24.41;36.00
60646;BME280;46462;32.608;-117.032;2023-04-15T01:04:52;99299.26;;;24.38;36.05
60646;BME280;46462;32.608;-117.032;2023-04-15T01:07:23;99297.77;;;24.38;36.08
60646;BME280;46462;32.608;-117.032;2023-04-15T01:09:53;99299.66;;;24.35;36.12
60646;BME280;46462;32.608;-117.032;2023-04-15T01:12:25;99300.90;;;24.36;36.13
60646;BME280;46462;32.608;-117.032;2023-04-15T01:14:55;99301.43;;;24.36;36.12
60646;BME280;46462;32.608;-117.032;2023-04-15T01:17:26;99300.09;;;24.38;36.10
60646;BME280;46462;32.608;-117.032;2023-04-15T01:19:56;99302.30;;;24.37;36.14
60646;BME280;46462;32.608;-117.032;2023-04-15T01:22:27;99302.73;;;24.40;36.11
60646;BME280;46462;32.608;-117.032;2023-04-15T01:25:03;99305.61;;;24.39;36.15
60646;BME280;46462;32.608;-117.032;2023-04-15T01:27:29;99307.55;;;24.37;36.19
60646;BME280;46462;32.608;-117.032;2023-04-15T01:29:59;99308.01;;;24.35;36.21
60646;BME280;46462;32.608;-117.032;2023-04-15T01:32:30;99309.13;;;24.36;36.21
60646;BME280;46462;32.608;-117.032;2023-04-15T01:35:01;99308.58;;;24.36;36.22
60646;BME280;46462;32.608;-117.032;2023-04-15T01:37:32;99311.95;;;24.36;36.21
60646;BME280;46462;32.608;-117.032;2023-04-15T01:40:02;99316.94;;;24.35;36.25
60646;BME280;46462;32.608;-117.032;2023-04-15T01:42:35;99317.32;;;24.33;36.25
60646;BME280;46462;32.608;-117.032;2023-04-15T01:45:08;99320.04;;;24.30;36.33
60646;BME280;46462;32.608;-117.032;2023-04-15T01:47:37;99320.12;;;24.34;36.26
60646;BME280;46462;32.608;-117.032;2023-04-15T01:50:08;99318.00;;;24.32;36.31
60646;BME280;46462;32.608;-117.032;2023-04-15T01:52:38;99319.30;;;24.35;36.26
60646;BME280;46462;32.608;-117.032;2023-04-15T01:55:10;99324.16;;;24.33;36.29
60646;BME280;46462;32.608;-117.032;2023-04-15T01:57:39;99325.90;;;24.31;36.31
60646;BME280;46462;32.608;-117.032;2023-04-15T02:00:10;99327.91;;;24.29;36.35
60646;BME280;46462;32.608;-117.032;2023-04-15T02:02:41;99332.54;;;24.29;36.39
60646;BME280;46462;32.608;-117.032;2023-04-15T02:05:11;99331.87;;;24.25;36.45
60646;BME280;46462;32.608;-117.032;2023-04-15T02:07:42;99335.34;;;24.24;36.45
60646;BME280;46462;32.608;-117.032;2023-04-15T02:10:13;99341.63;;;24.22;36.52
60646;BME280;46462;32.608;-117.032;2023-04-15T02:12:43;99347.85;;;24.21;36.54
60646;BME280;46462;32.608;-117.032;2023-04-15T02:15:14;99349.52;;;24.16;36.61
60646;BME280;46462;32.608;-117.032;2023-04-15T02:17:45;99355.08;;;24.20;36.59
60646;BME280;46462;32.608;-117.032;2023-04-15T02:20:16;99358.40;;;24.15;36.68
60646;BME280;46462;32.608;-117.032;2023-04-15T02:22:46;99357.55;;;24.12;36.74
60646;BME280;46462;32.608;-117.032;2023-04-15T02:25:17;99358.74;;;24.12;36.74
60646;BME280;46462;32.608;-117.032;2023-04-15T02:27:48;99362.53;;;24.10;36.78
60646;BME280;46462;32.608;-117.032;2023-04-15T02:30:19;99363.63;;;24.09;36.82
60646;BME280;46462;32.608;-117.032;2023-04-15T02:32:49;99363.61;;;24.08;36.82
60646;BME280;46462;32.608;-117.032;2023-04-15T02:35:20;99363.06;;;24.04;36.88
60646;BME280;46462;32.608;-117.032;2023-04-15T02:37:51;99360.62;;;24.03;36.93
60646;BME280;46462;32.608;-117.032;2023-04-15T02:40:22;99362.36;;;23.99;36.98
60646;BME280;46462;32.608;-117.032;2023-04-15T02:42:52;99366.12;;;24.03;36.92
60646;BME280;46462;32.608;-117.032;2023-04-15T02:45:23;99369.95;;;24.03;36.94
60646;BME280;46462;32.608;-117.032;2023-04-15T02:47:54;99375.20;;;24.02;36.96
60646;BME280;46462;32.608;-117.032;2023-04-15T02:50:25;99383.45;;;23.97;37.05
60646;BME280;46462;32.608;-117.032;2023-04-15T02:52:55;99388.83;;;23.96;37.07
60646;BME280;46462;32.608;-117.032;2023-04-15T02:55:26;99391.00;;;23.95;37.10
60646;BME280;46462;32.608;-117.032;2023-04-15T02:57:57;99393.02;;;23.94;37.11
60646;BME280;46462;32.608;-117.032;2023-04-15T03:00:28;99396.83;;;23.95;37.11
60646;BME280;46462;32.608;-117.032;2023-04-15T03:03:03;99398.95;;;23.95;37.08
60646;BME280;46462;32.608;-117.032;2023-04-15T03:05:29;99402.75;;;23.94;37.12
60646;BME280;46462;32.608;-117.032;2023-04-15T03:08:00;99406.11;;;23.94;37.08
60646;BME280;46462;32.608;-117.032;2023-04-15T03:10:31;99409.29;;;23.92;37.15
60646;BME280;46462;32.608;-117.032;2023-04-15T03:13:01;99409.76;;;23.97;37.05
60646;BME280;46462;32.608;-117.032;2023-04-15T03:15:32;99414.43;;;23.95;37.07
60646;BME280;46462;32.608;-117.032;2023-04-15T03:18:03;99422.65;;;23.94;37.08
60646;BME280;46462;32.608;-117.032;2023-04-15T03:20:34;99428.39;;;23.93;37.09
60646;BME280;46462;32.608;-117.032;2023-04-15T03:23:05;99431.87;;;23.91;37.14
60646;BME280;46462;32.608;-117.032;2023-04-15T03:25:35;99436.03;;;23.89;37.16
60646;BME280;46462;32.608;-117.032;2023-04-15T03:28:06;99437.40;;;23.92;37.09
60646;BME280;46462;32.608;-117.032;2023-04-15T03:30:37;99443.81;;;23.92;37.09
60646;BME280;46462;32.608;-117.032;2023-04-15T03:33:07;99448.00;;;23.90;37.14
60646;BME280;46462;32.608;-117.032;2023-04-15T03:35:38;99452.83;;;23.89;37.14
60646;BME280;46462;32.608;-117.032;2023-04-15T03:38:09;99455.61;;;23.86;37.16
60646;BME280;46462;32.608;-117.032;2023-04-15T03:40:41;99459.79;;;23.87;37.16
60646;BME280;46462;32.608;-117.032;2023-04-15T03:43:10;99463.97;;;23.89;37.10
60646;BME280;46462;32.608;-117.032;2023-04-15T03:45:41;99464.99;;;23.87;37.12
60646;BME280;46462;32.608;-117.032;2023-04-15T03:48:12;99467.84;;;23.88;37.09
60646;BME280;46462;32.608;-117.032;2023-04-15T03:50:43;99466.62;;;23.85;37.18
60646;BME280;46462;32.608;-117.032;2023-04-15T03:53:15;99469.10;;;23.89;37.13
60646;BME280;46462;32.608;-117.032;2023-04-15T03:55:44;99467.19;;;23.86;37.13
60646;BME280;46462;32.608;-117.032;2023-04-15T03:58:15;99469.17;;;23.80;37.20
60646;BME280;46462;32.608;-117.032;2023-04-15T04:00:46;99470.86;;;23.81;37.23
60646;BME280;46462;32.608;-117.032;2023-04-15T04:03:17;99472.53;;;23.78;37.26
60646;BME280;46462;32.608;-117.032;2023-04-15T04:05:47;99478.27;;;23.76;37.31
60646;BME280;46462;32.608;-117.032;2023-04-15T04:08:18;99483.03;;;23.79;37.27
60646;BME280;46462;32.608;-117.032;2023-04-15T04:10:49;99483.57;;;23.70;37.44
60646;BME280;46462;32.608;-117.032;2023-04-15T04:13:20;99486.53;;;23.68;37.48
60646;BME280;46462;32.608;-117.032;2023-04-15T04:15:50;99491.36;;;23.64;37.55
60646;BME280;46462;32.608;-117.032;2023-04-15T04:18:21;99494.31;;;23.61;37.59
60646;BME280;46462;32.608;-117.032;2023-04-15T04:20:52;99496.67;;;23.61;37.65
60646;BME280;46462;32.608;-117.032;2023-04-15T04:23:23;99496.33;;;23.64;37.56
60646;BME280;46462;32.608;-117.032;2023-04-15T04:25:53;99497.22;;;23.64;37.56
60646;BME280;46462;32.608;-117.032;2023-04-15T04:28:24;99499.23;;;23.64;37.52
60646;BME280;46462;32.608;-117.032;2023-04-15T04:30:55;99498.31;;;23.66;37.47
60646;BME280;46462;32.608;-117.032;2023-04-15T04:33:26;99498.26;;;23.61;37.59
60646;BME280;46462;32.608;-117.032;2023-04-15T04:35:56;99500.41;;;23.58;37.61
60646;BME280;46462;32.608;-117.032;2023-04-15T04:38:27;99501.91;;;23.59;37.56
60646;BME280;46462;32.608;-117.032;2023-04-15T04:40:58;99504.88;;;23.56;37.63
60646;BME280;46462;32.608;-117.032;2023-04-15T04:43:29;99506.69;;;23.54;37.66
60646;BME280;46462;32.608;-117.032;2023-04-15T04:46:00;99512.36;;;23.54;37.64
60646;BME280;46462;32.608;-117.032;2023-04-15T04:48:30;99514.75;;;23.57;37.58
60646;BME280;46462;32.608;-117.032;2023-04-15T04:51:01;99513.26;;;23.55;37.63
60646;BME280;46462;32.608;-117.032;2023-04-15T04:53:32;99515.50;;;23.57;37.55
60646;BME280;46462;32.608;-117.032;2023-04-15T04:56:03;99511.92;;;23.58;37.53
60646;BME280;46462;32.608;-117.032;2023-04-15T04:58:34;99513.08;;;23.54;37.60
60646;BME280;46462;32.608;-117.032;2023-04-15T05:01:04;99516.27;;;23.53;37.62
60646;BME280;46462;32.608;-117.032;2023-04-15T05:03:35;99518.76;;;23.53;37.62
60646;BME280;46462;32.608;-117.032;2023-04-15T05:06:05;99521.03;;;23.51;37.62
60646;BME280;46462;32.608;-117.032;2023-04-15T05:08:36;99522.21;;;23.49;37.66
60646;BME280;46462;32.608;-117.032;2023-04-15T05:11:07;99521.36;;;23.52;37.56
60646;BME280;46462;32.608;-117.032;2023-04-15T05:13:38;99521.28;;;23.54;37.54
60646;BME280;46462;32.608;-117.032;2023-04-15T05:16:08;99521.86;;;23.53;37.56
60646;BME280;46462;32.608;-117.032;2023-04-15T05:18:39;99519.28;;;23.56;37.49
60646;BME280;46462;32.608;-117.032;2023-04-15T05:21:10;99522.41;;;23.54;37.52
60646;BME280;46462;32.608;-117.032;2023-04-15T05:23:41;99523.56;;;23.53;37.54
60646;BME280;46462;32.608;-117.032;2023-04-15T05:26:11;99522.05;;;23.52;37.50
60646;BME280;46462;32.608;-117.032;2023-04-15T05:28:42;99525.61;;;23.56;37.49
60646;BME280;46462;32.608;-117.032;2023-04-15T05:31:13;99526.04;;;23.55;37.43
60646;BME280;46462;32.608;-117.032;2023-04-15T05:33:44;99522.17;;;23.54;37.44
60646;BME280;46462;32.608;-117.032;2023-04-15T05:36:14;99523.07;;;23.50;37.54
60646;BME280;46462;32.608;-117.032;2023-04-15T05:38:45;99525.54;;;23.46;37.58
60646;BME280;46462;32.608;-117.032;2023-04-15T05:41:16;99524.84;;;23.45;37.61
60646;BME280;46462;32.608;-117.032;2023-04-15T05:43:47;99526.63;;;23.45;37.62
60646;BME280;46462;32.608;-117.032;2023-04-15T05:46:17;99526.32;;;23.42;37.65
60646;BME280;46462;32.608;-117.032;2023-04-15T05:48:48;99526.61;;;23.40;37.69
60646;BME280;46462;32.608;-117.032;2023-04-15T05:51:19;99528.54;;;23.45;37.62
60646;BME280;46462;32.608;-117.032;2023-04-15T05:53:49;99528.90;;;23.42;37.64
60646;BME280;46462;32.608;-117.032;2023-04-15T05:56:20;99531.21;;;23.38;37.71
60646;BME280;46462;32.608;-117.032;2023-04-15T05:58:51;99530.33;;;23.37;37.67
60646;BME280;46462;32.608;-117.032;2023-04-15T06:01:22;99532.79;;;23.43;37.54
60646;BME280;46462;32.608;-117.032;2023-04-15T06:03:53;99533.60;;;23.47;37.47
60646;BME280;46462;32.608;-117.032;2023-04-15T06:06:23;99532.01;;;23.40;37.57
60646;BME280;46462;32.608;-117.032;2023-04-15T06:08:54;99530.01;;;23.36;37.66
60646;BME280;46462;32.608;-117.032;2023-04-15T06:11:25;99534.43;;;23.28;37.79
60646;BME280;46462;32.608;-117.032;2023-04-15T06:13:55;99533.74;;;23.25;37.85
60646;BME280;46462;32.608;-117.032;2023-04-15T06:16:26;99532.41;;;23.29;37.78
60646;BME280;46462;32.608;-117.032;2023-04-15T06:18:57;99533.27;;;23.25;37.81
60646;BME280;46462;32.608;-117.032;2023-04-15T06:21:28;99536.53;;;23.25;37.84
60646;BME280;46462;32.608;-117.032;2023-04-15T06:23:59;99536.13;;;23.24;37.85
60646;BME280;46462;32.608;-117.032;2023-04-15T06:26:29;99536.18;;;23.20;37.88
60646;BME280;46462;32.608;-117.032;2023-04-15T06:29:00;99537.35;;;23.23;37.83
60646;BME280;46462;32.608;-117.032;2023-04-15T06:31:31;99539.39;;;23.26;37.78
60646;BME280;46462;32.608;-117.032;2023-04-15T06:34:02;99539.22;;;23.22;37.83
60646;BME280;46462;32.608;-117.032;2023-04-15T06:36:33;99541.52;;;23.21;37.83
60646;BME280;46462;32.608;-117.032;2023-04-15T06:39:04;99541.48;;;23.19;37.85
60646;BME280;46462;32.608;-117.032;2023-04-15T06:41:34;99543.57;;;23.18;37.82
60646;BME280;46462;32.608;-117.032;2023-04-15T06:44:05;99546.14;;;23.17;37.85
60646;BME280;46462;32.608;-117.032;2023-04-15T06:46:35;99548.55;;;23.11;37.93
60646;BME280;46462;32.608;-117.032;2023-04-15T06:49:06;99550.58;;;23.15;37.89
60646;BME280;46462;32.608;-117.032;2023-04-15T06:51:37;99553.92;;;23.17;37.85
60646;BME280;46462;32.608;-117.032;2023-04-15T06:54:10;99557.81;;;23.13;37.88
60646;BME280;46462;32.608;-117.032;2023-04-15T06:56:39;99561.94;;;23.17;37.82
60646;BME280;46462;32.608;-117.032;2023-04-15T06:59:09;99566.54;;;23.13;37.85
60646;BME280;46462;32.608;-117.032;2023-04-15T07:01:40;99565.25;;;23.09;37.89
60646;BME280;46462;32.608;-117.032;2023-04-15T07:04:11;99565.96;;;23.11;37.85
60646;BME280;46462;32.608;-117.032;2023-04-15T07:06:42;99565.27;;;23.06;37.96
60646;BME280;46462;32.608;-117.032;2023-04-15T07:09:13;99565.19;;;23.04;38.01
60646;BME280;46462;32.608;-117.032;2023-04-15T07:11:43;99568.17;;;23.03;38.02
60646;BME280;46462;32.608;-117.032;2023-04-15T07:14:14;99567.92;;;23.00;38.03
60646;BME280;46462;32.608;-117.032;2023-04-15T07:16:45;99568.05;;;22.97;38.11
60646;BME280;46462;32.608;-117.032;2023-04-15T07:19:16;99568.84;;;23.01;38.01
60646;BME280;46462;32.608;-117.032;2023-04-15T07:21:47;99570.62;;;23.00;37.98
60646;BME280;46462;32.608;-117.032;2023-04-15T07:24:17;99571.85;;;22.92;38.15
60646;BME280;46462;32.608;-117.032;2023-04-15T07:26:48;99572.54;;;22.88;38.17
60646;BME280;46462;32.608;-117.032;2023-04-15T07:29:19;99574.81;;;22.95;38.08
60646;BME280;46462;32.608;-117.032;2023-04-15T07:31:49;99578.73;;;22.90;38.14
60646;BME280;46462;32.608;-117.032;2023-04-15T07:34:20;99577.97;;;22.87;38.11
60646;BME280;46462;32.608;-117.032;2023-04-15T07:36:51;99578.11;;;22.93;38.02
60646;BME280;46462;32.608;-117.032;2023-04-15T07:39:22;99578.57;;;22.87;38.09
60646;BME280;46462;32.608;-117.032;2023-04-15T07:41:52;99581.72;;;22.89;38.07
60646;BME280;46462;32.608;-117.032;2023-04-15T07:44:23;99584.02;;;22.93;38.02
60646;BME280;46462;32.608;-117.032;2023-04-15T07:46:55;99584.03;;;22.94;37.95
60646;BME280;46462;32.608;-117.032;2023-04-15T07:49:25;99583.09;;;22.88;38.00
60646;BME280;46462;32.608;-117.032;2023-04-15T07:51:56;99584.73;;;22.93;37.98
60646;BME280;46462;32.608;-117.032;2023-04-15T07:54:27;99582.61;;;22.87;38.00
60646;BME280;46462;32.608;-117.032;2023-04-15T07:56:57;99581.31;;;22.86;38.05
60646;BME280;46462;32.608;-117.032;2023-04-15T07:59:29;99583.22;;;22.89;37.96
60646;BME280;46462;32.608;-117.032;2023-04-15T08:01:59;99584.81;;;22.89;37.94
60646;BME280;46462;32.608;-117.032;2023-04-15T08:04:30;99582.98;;;22.87;37.90
60646;BME280;46462;32.608;-117.032;2023-04-15T08:07:00;99583.02;;;22.87;37.92
60646;BME280;46462;32.608;-117.032;2023-04-15T08:09:31;99586.46;;;22.79;38.04
60646;BME280;46462;32.608;-117.032;2023-04-15T08:12:03;99588.96;;;22.79;38.01
60646;BME280;46462;32.608;-117.032;2023-04-15T08:14:33;99590.49;;;22.79;38.00
60646;BME280;46462;32.608;-117.032;2023-04-15T08:17:04;99592.23;;;22.82;37.93
60646;BME280;46462;32.608;-117.032;2023-04-15T08:19:34;99588.25;;;22.82;37.89
60646;BME280;46462;32.608;-117.032;2023-04-15T08:22:05;99587.43;;;22.80;37.89
60646;BME280;46462;32.608;-117.032;2023-04-15T08:24:36;99592.19;;;22.76;37.98
60646;BME280;46462;32.608;-117.032;2023-04-15T08:27:07;99592.38;;;22.74;37.98
60646;BME280;46462;32.608;-117.032;2023-04-15T08:29:37;99593.75;;;22.69;38.04
60646;BME280;46462;32.608;-117.032;2023-04-15T08:32:08;99596.08;;;22.69;38.08
60646;BME280;46462;32.608;-117.032;2023-04-15T08:34:39;99594.54;;;22.66;38.11
60646;BME280;46462;32.608;-117.032;2023-04-15T08:37:10;99592.90;;;22.69;38.04
60646;BME280;46462;32.608;-117.032;2023-04-15T08:39:41;99594.21;;;22.64;38.04
60646;BME280;46462;32.608;-117.032;2023-04-15T08:42:16;99594.02;;;22.63;38.11
60646;BME280;46462;32.608;-117.032;2023-04-15T08:44:43;99588.68;;;22.59;38.12
60646;BME280;46462;32.608;-117.032;2023-04-15T08:47:13;99588.27;;;22.54;38.17
60646;BME280;46462;32.608;-117.032;2023-04-15T08:49:44;99584.80;;;22.62;38.04
60646;BME280;46462;32.608;-117.032;2023-04-15T08:52:15;99582.08;;;22.59;38.06
60646;BME280;46462;32.608;-117.032;2023-04-15T08:54:46;99581.68;;;22.65;37.90
60646;BME280;46462;32.608;-117.032;2023-04-15T08:57:16;99580.36;;;22.66;37.86
60646;BME280;46462;32.608;-117.032;2023-04-15T08:59:47;99582.11;;;22.63;37.89
60646;BME280;46462;32.608;-117.032;2023-04-15T09:02:19;99580.81;;;22.66;37.80
60646;BME280;46462;32.608;-117.032;2023-04-15T09:04:49;99582.44;;;22.62;37.83
60646;BME280;46462;32.608;-117.032;2023-04-15T09:07:19;99577.80;;;22.64;37.82
60646;BME280;46462;32.608;-117.032;2023-04-15T09:09:50;99574.66;;;22.64;37.77
60646;BME280;46462;32.608;-117.032;2023-04-15T09:12:21;99576.22;;;22.61;37.79
60646;BME280;46462;32.608;-117.032;2023-04-15T09:14:52;99578.45;;;22.61;37.79
60646;BME280;46462;32.608;-117.032;2023-04-15T09:17:23;99573.16;;;22.60;37.75
60646;BME280;46462;32.608;-117.032;2023-04-15T09:22:30;99571.96;;;22.58;37.68
60646;BME280;46462;32.608;-117.032;2023-04-15T09:24:55;99568.19;;;22.58;37.71
60646;BME280;46462;32.608;-117.032;2023-04-15T09:27:26;99568.90;;;22.60;37.65
60646;BME280;46462;32.608;-117.032;2023-04-15T09:29:56;99568.34;;;22.56;37.69
60646;BME280;46462;32.608;-117.032;2023-04-15T09:32:27;99568.88;;;22.57;37.64
60646;BME280;46462;32.608;-117.032;2023-04-15T09:37:34;99573.89;;;22.48;37.71
60646;BME280;46462;32.608;-117.032;2023-04-15T09:40:00;99571.57;;;22.47;37.76
60646;BME280;46462;32.608;-117.032;2023-04-15T09:42:30;99571.41;;;22.50;37.70
60646;BME280;46462;32.608;-117.032;2023-04-15T09:45:07;99567.55;;;22.47;37.67
60646;BME280;46462;32.608;-117.032;2023-04-15T09:47:32;99564.10;;;22.45;37.71
60646;BME280;46462;32.608;-117.032;2023-04-15T09:50:08;99561.72;;;22.44;37.72
60646;BME280;46462;32.608;-117.032;2023-04-15T09:52:41;99560.57;;;22.47;37.64
60646;BME280;46462;32.608;-117.032;2023-04-15T09:55:08;99561.77;;;22.44;37.66
60646;BME280;46462;32.608;-117.032;2023-04-15T09:57:38;99561.60;;;22.45;37.61
60646;BME280;46462;32.608;-117.032;2023-04-15T10:00:09;99565.71;;;22.44;37.59
60646;BME280;46462;32.608;-117.032;2023-04-15T10:02:40;99566.02;;;22.44;37.60
60646;BME280;46462;32.608;-117.032;2023-04-15T10:05:12;99566.47;;;22.36;37.68
60646;BME280;46462;32.608;-117.032;2023-04-15T10:07:41;99566.98;;;22.34;37.72
60646;BME280;46462;32.608;-117.032;2023-04-15T10:10:12;99566.89;;;22.30;37.78
60646;BME280;46462;32.608;-117.032;2023-04-15T10:12:43;99573.24;;;22.24;37.85
60646;BME280;46462;32.608;-117.032;2023-04-15T10:15:15;99578.20;;;22.15;38.00
60646;BME280;46462;32.608;-117.032;2023-04-15T10:17:45;99574.55;;;22.21;37.91
60646;BME280;46462;32.608;-117.032;2023-04-15T10:20:17;99582.72;;;22.20;37.91
60646;BME280;46462;32.608;-117.032;2023-04-15T10:22:46;99584.58;;;22.21;37.86
60646;BME280;46462;32.608;-117.032;2023-04-15T10:25:17;99590.09;;;22.22;37.81
60646;BME280;46462;32.608;-117.032;2023-04-15T10:27:47;99592.50;;;22.22;37.81
60646;BME280;46462;32.608;-117.032;2023-04-15T10:30:18;99591.26;;;22.22;37.78
60646;BME280;46462;32.608;-117.032;2023-04-15T10:32:49;99590.48;;;22.29;37.66
60646;BME280;46462;32.608;-117.032;2023-04-15T10:35:21;99591.17;;;22.27;37.64
60646;BME280;46462;32.608;-117.032;2023-04-15T10:37:51;99589.83;;;22.26;37.62
60646;BME280;46462;32.608;-117.032;2023-04-15T10:40:26;99591.43;;;22.24;37.63
60646;BME280;46462;32.608;-117.032;2023-04-15T10:42:52;99598.30;;;22.21;37.65
60646;BME280;46462;32.608;-117.032;2023-04-15T10:45:26;99595.91;;;22.21;37.65
60646;BME280;46462;32.608;-117.032;2023-04-15T10:47:55;99598.18;;;22.22;37.60
60646;BME280;46462;32.608;-117.032;2023-04-15T10:50:26;99597.88;;;22.16;37.65
60646;BME280;46462;32.608;-117.032;2023-04-15T10:52:56;99599.53;;;22.13;37.70
60646;BME280;46462;32.608;-117.032;2023-04-15T10:55:31;99598.98;;;22.11;37.73
60646;BME280;46462;32.608;-117.032;2023-04-15T10:57:59;99597.83;;;22.12;37.68
60646;BME280;46462;32.608;-117.032;2023-04-15T11:00:30;99595.36;;;22.07;37.78
60646;BME280;46462;32.608;-117.032;2023-04-15T11:03:04;99594.85;;;22.13;37.65
60646;BME280;46462;32.608;-117.032;2023-04-15T11:08:00;99596.92;;;22.20;37.45
60646;BME280;46462;32.608;-117.032;2023-04-15T11:13:03;99601.58;;;22.20;37.41
60646;BME280;46462;32.608;-117.032;2023-04-15T11:15:35;99606.14;;;22.18;37.43
60646;BME280;46462;32.608;-117.032;2023-04-15T11:18:08;99610.27;;;22.18;37.35
60646;BME280;46462;32.608;-117.032;2023-04-15T11:20:34;99611.49;;;22.14;37.43
60646;BME280;46462;32.608;-117.032;2023-04-15T11:23:05;99613.39;;;22.14;37.42
60646;BME280;46462;32.608;-117.032;2023-04-15T11:25:36;99616.41;;;22.11;37.43
60646;BME280;46462;32.608;-117.032;2023-04-15T11:28:07;99616.71;;;22.08;37.47
60646;BME280;46462;32.608;-117.032;2023-04-15T11:30:38;99615.71;;;22.10;37.44
60646;BME280;46462;32.608;-117.032;2023-04-15T11:33:09;99617.01;;;22.06;37.50
60646;BME280;46462;32.608;-117.032;2023-04-15T11:35:41;99619.59;;;22.02;37.53
60646;BME280;46462;32.608;-117.032;2023-04-15T11:38:11;99618.50;;;22.02;37.49
60646;BME280;46462;32.608;-117.032;2023-04-15T11:40:41;99617.97;;;22.02;37.45
60646;BME280;46462;32.608;-117.032;2023-04-15T11:43:12;99618.94;;;22.07;37.38
60646;BME280;46462;32.608;-117.032;2023-04-15T11:45:50;99621.95;;;22.06;37.38
60646;BME280;46462;32.608;-117.032;2023-04-15T11:48:13;99623.38;;;22.06;37.32
60646;BME280;46462;32.608;-117.032;2023-04-15T11:50:44;99625.95;;;22.01;37.41
60646;BME280;46462;32.608;-117.032;2023-04-15T11:53:14;99623.62;;;21.99;37.42
60646;BME280;46462;32.608;-117.032;2023-04-15T11:55:46;99623.95;;;21.93;37.50
60646;BME280;46462;32.608;-117.032;2023-04-15T11:58:18;99620.16;;;21.90;37.53
60646;BME280;46462;32.608;-117.032;2023-04-15T12:00:49;99617.76;;;21.82;37.65
60646;BME280;46462;32.608;-117.032;2023-04-15T12:03:21;99617.09;;;21.83;37.61
60646;BME280;46462;32.608;-117.032;2023-04-15T12:08:19;99609.78;;;21.78;37.68
60646;BME280;46462;32.608;-117.032;2023-04-15T12:10:50;99606.28;;;21.80;37.62
60646;BME280;46462;32.608;-117.032;2023-04-15T12:13:21;99609.10;;;21.78;37.64
60646;BME280;46462;32.608;-117.032;2023-04-15T12:15:52;99610.31;;;21.78;37.61
60646;BME280;46462;32.608;-117.032;2023-04-15T12:18:24;99610.72;;;21.81;37.55
60646;BME280;46462;32.608;-117.032;2023-04-15T12:20:53;99609.37;;;21.81;37.53
60646;BME280;46462;32.608;-117.032;2023-04-15T12:23:24;99611.82;;;21.79;37.52
60646;BME280;46462;32.608;-117.032;2023-04-15T12:25:55;99615.47;;;21.76;37.58
60646;BME280;46462;32.608;-117.032;2023-04-15T12:28:30;99616.15;;;21.78;37.53
60646;BME280;46462;32.608;-117.032;2023-04-15T12:30:57;99617.98;;;21.78;37.47
60646;BME280;46462;32.608;-117.032;2023-04-15T12:33:32;99618.41;;;21.73;37.56
60646;BME280;46462;32.608;-117.032;2023-04-15T12:35:58;99619.41;;;21.71;37.59
60646;BME280;46462;32.608;-117.032;2023-04-15T12:38:29;99620.71;;;21.73;37.51
60646;BME280;46462;32.608;-117.032;2023-04-15T12:41:00;99622.36;;;21.77;37.44
60646;BME280;46462;32.608;-117.032;2023-04-15T12:43:30;99622.72;;;21.69;37.54
60646;BME280;46462;32.608;-117.032;2023-04-15T12:46:01;99619.21;;;21.65;37.61
60646;BME280;46462;32.608;-117.032;2023-04-15T12:48:32;99618.30;;;21.63;37.66
60646;BME280;46462;32.608;-117.032;2023-04-15T12:51:03;99617.57;;;21.66;37.56
60646;BME280;46462;32.608;-117.032;2023-04-15T12:53:34;99620.50;;;21.64;37.53
60646;BME280;46462;32.608;-117.032;2023-04-15T12:56:05;99625.08;;;21.62;37.57
60646;BME280;46462;32.608;-117.032;2023-04-15T12:58:35;99628.43;;;21.67;37.51
60646;BME280;46462;32.608;-117.032;2023-04-15T13:01:06;99628.46;;;21.70;37.41
60646;BME280;46462;32.608;-117.032;2023-04-15T13:03:37;99627.22;;;21.65;37.46